Time;durP1;ratioP1;P1;durP2;ratioP2;P2;SDS_P1;SDS_P2;PMS_P1;PMS_P2;Temp;Humidity;BMP_temperature;BMP_pressure;BME280_temperature;BME280_humidity;BME280_pressure;Samples;Min_cycle;Max_cycle;Signal;HPM_P1;HPM_P2
2021/12/20 00:01:55;;;;;;;13.83;2.77;;;5.40;1.00;;;;;;5049770;28;20444;-61
2021/12/20 00:04:20;;;;;;;3.50;1.73;;;5.40;1.00;;;;;;5050593;28;20187;-61
2021/12/20 00:06:47;;;;;;;7.80;2.30;;;5.30;1.00;;;;;;5051176;28;20209;-61
2021/12/20 00:09:13;;;;;;;7.53;1.90;;;5.30;1.00;;;;;;5053037;28;20180;-60
2021/12/20 00:11:38;;;;;;;4.30;1.67;;;5.30;1.00;;;;;;5049506;28;20482;-59
2021/12/20 00:14:04;;;;;;;7.37;1.90;;;5.20;1.00;;;;;;5053838;28;20179;-59
2021/12/20 00:16:30;;;;;;;8.60;1.87;;;5.20;1.00;;;;;;5050357;28;20215;-61
2021/12/20 00:18:55;;;;;;;4.93;1.30;;;5.20;1.00;;;;;;5050515;28;20451;-61
2021/12/20 00:21:21;;;;;;;4.80;1.60;;;5.20;1.00;;;;;;5062034;28;20696;-61
2021/12/20 00:23:46;;;;;;;5.53;1.23;;;5.20;1.00;;;;;;5057619;28;20233;-61
2021/12/20 00:26:12;;;;;;;10.90;2.67;;;5.30;1.00;;;;;;5056590;28;20211;-60
2021/12/20 00:28:38;;;;;;;4.50;1.70;;;5.30;1.00;;;;;;5056640;28;20195;-60
2021/12/20 00:31:04;;;;;;;5.67;1.57;;;5.30;1.00;;;;;;5057754;28;20254;-60
2021/12/20 00:33:33;;;;;;;2.07;1.20;;;5.40;1.00;;;;;;5054933;28;20467;-60
2021/12/20 00:36:03;;;;;;;4.27;1.97;;;5.30;1.00;;;;;;5054788;28;20738;-61
2021/12/20 00:41:13;;;;;;;5.90;1.80;;;5.10;1.00;;;;;;5059805;28;20437;-60
2021/12/20 00:43:39;;;;;;;3.07;1.30;;;5.10;1.00;;;;;;5060878;28;20451;-59
2021/12/20 00:46:05;;;;;;;6.57;1.40;;;4.90;1.00;;;;;;5060026;28;20220;-59
2021/12/20 00:48:30;;;;;;;3.63;1.80;;;5.00;1.00;;;;;;5050686;28;20449;-60
2021/12/20 00:50:56;;;;;;;6.63;2.03;;;4.90;1.00;;;;;;5053296;28;20200;-60
2021/12/20 00:53:22;;;;;;;6.23;2.17;;;4.90;1.00;;;;;;5050102;28;20218;-60
2021/12/20 00:55:48;;;;;;;4.10;1.50;;;4.80;1.00;;;;;;5050070;28;20201;-61
2021/12/20 00:58:14;;;;;;;4.80;1.53;;;4.80;1.00;;;;;;5049926;28;20472;-60
2021/12/20 01:00:46;;;;;;;1.50;0.90;;;4.70;1.00;;;;;;5049501;28;20824;-61
2021/12/20 01:03:12;;;;;;;4.90;1.53;;;4.60;1.00;;;;;;5048316;28;20189;-60
2021/12/20 01:05:39;;;;;;;3.23;1.33;;;4.70;1.00;;;;;;5049601;28;21012;-61
2021/12/20 01:08:07;;;;;;;6.00;2.20;;;4.70;1.00;;;;;;5048675;28;20455;-60
2021/12/20 01:10:34;;;;;;;4.83;1.30;;;4.70;1.00;;;;;;5048576;28;20449;-61
2021/12/20 01:13:01;;;;;;;4.03;1.63;;;4.70;1.00;;;;;;5057451;28;20436;-60
2021/12/20 01:15:49;;;;;;;3.80;1.70;;;4.50;1.00;;;;;;5057907;28;20537;-60
2021/12/20 01:18:16;;;;;;;3.53;1.30;;;4.60;1.00;;;;;;5049054;28;20445;-59
2021/12/20 01:20:42;;;;;;;6.40;1.90;;;4.50;1.00;;;;;;5049899;28;20439;-60
2021/12/20 01:23:08;;;;;;;5.23;1.60;;;4.50;1.00;;;;;;5047820;28;20537;-60
2021/12/20 01:25:34;;;;;;;6.60;2.10;;;4.50;1.00;;;;;;5049278;28;20194;-61
2021/12/20 01:28:00;;;;;;;6.50;1.53;;;4.50;1.00;;;;;;5050108;28;20440;-60
2021/12/20 01:30:27;;;;;;;7.57;1.83;;;4.40;1.00;;;;;;5049705;28;20271;-59
2021/12/20 01:32:52;;;;;;;5.50;1.60;;;4.30;1.00;;;;;;5049734;28;20478;-60
2021/12/20 01:35:20;;;;;;;2.73;1.80;;;4.20;1.00;;;;;;5049204;28;20841;-60
2021/12/20 01:37:47;;;;;;;8.20;1.63;;;4.30;1.00;;;;;;5051867;28;20191;-59
2021/12/20 01:40:14;;;;;;;5.43;1.53;;;4.30;1.00;;;;;;5048543;28;20702;-60
2021/12/20 01:42:41;;;;;;;1.73;1.40;;;4.20;1.00;;;;;;5049995;28;20432;-60
2021/12/20 01:45:16;;;;;;;5.30;1.23;;;4.10;1.00;;;;;;5052541;28;20514;-60
2021/12/20 01:47:46;;;;;;;1.60;0.90;;;4.10;1.00;;;;;;5053506;28;20444;-60
2021/12/20 01:50:40;;;;;;;5.93;1.57;;;4.10;1.00;;;;;;5052483;28;20968;-61
2021/12/20 01:53:07;;;;;;;3.40;1.00;;;4.00;1.00;;;;;;5050335;28;20446;-60
2021/12/20 01:55:33;;;;;;;4.33;1.10;;;4.00;1.00;;;;;;5048893;28;20459;-60
2021/12/20 01:57:58;;;;;;;4.27;1.50;;;4.10;1.00;;;;;;5056128;28;20496;-60
2021/12/20 02:00:28;;;;;;;2.40;1.27;;;4.10;1.00;;;;;;5049278;28;20535;-61
2021/12/20 02:03:00;;;;;;;3.23;1.30;;;4.20;1.00;;;;;;5054752;28;20201;-60
2021/12/20 02:05:49;;;;;;;3.70;1.20;;;4.30;1.00;;;;;;5047180;28;20962;-60
2021/12/20 02:10:45;;;;;;;2.40;1.13;;;4.10;1.00;;;;;;5049271;28;20481;-60
2021/12/20 02:13:15;;;;;;;7.43;2.80;;;4.00;1.00;;;;;;5048210;28;20727;-60
2021/12/20 02:15:40;;;;;;;4.07;1.40;;;3.90;1.00;;;;;;5050578;28;20473;-60
2021/12/20 02:18:06;;;;;;;4.57;1.10;;;3.90;1.00;;;;;;5049282;28;20494;-60
2021/12/20 02:20:34;;;;;;;6.47;1.60;;;3.90;1.00;;;;;;5054359;28;20188;-60
2021/12/20 02:23:00;;;;;;;2.00;1.27;;;3.90;1.00;;;;;;5049474;28;20536;-58
2021/12/20 02:25:28;;;;;;;2.80;1.07;;;3.90;1.00;;;;;;5055591;28;20441;-60
2021/12/20 02:27:54;;;;;;;5.57;1.07;;;3.80;1.00;;;;;;5049198;28;20437;-58
2021/12/20 02:38:46;;;;;;;7.90;2.40;;;3.70;1.00;;;;;;5060013;28;20465;-59
2021/12/20 02:41:15;;;;;;;4.30;1.27;;;3.70;1.00;;;;;;5059031;28;20434;-60
2021/12/20 02:43:52;;;;;;;3.50;1.60;;;3.70;1.00;;;;;;5058903;28;20435;-60
2021/12/20 02:49:08;;;;;;;8.30;1.87;;;3.70;1.00;;;;;;5056231;28;20466;-61
2021/12/20 02:51:34;;;;;;;4.60;1.27;;;3.70;1.00;;;;;;5051180;28;20856;-60
2021/12/20 02:54:01;;;;;;;2.60;1.20;;;3.70;1.00;;;;;;5052857;28;20497;-61
2021/12/20 02:56:27;;;;;;;5.10;1.50;;;3.60;1.00;;;;;;5059546;28;20564;-61
2021/12/20 02:58:52;;;;;;;4.60;1.87;;;3.50;1.00;;;;;;5059988;28;21427;-60
2021/12/20 03:01:18;;;;;;;6.70;2.23;;;3.40;1.00;;;;;;5056618;28;20189;-61
2021/12/20 03:03:45;;;;;;;5.93;1.60;;;3.50;1.00;;;;;;5059773;28;20282;-60
2021/12/20 03:06:13;;;;;;;5.20;1.60;;;3.50;1.00;;;;;;5062470;28;20975;-60
2021/12/20 03:08:43;;;;;;;3.70;1.17;;;3.60;1.00;;;;;;5057790;28;20455;-60
2021/12/20 03:11:08;;;;;;;3.70;1.50;;;3.50;1.00;;;;;;5050552;28;20451;-60
2021/12/20 03:13:34;;;;;;;4.30;1.37;;;3.50;1.00;;;;;;5049557;28;20453;-60
2021/12/20 03:15:59;;;;;;;2.47;1.50;;;3.50;1.00;;;;;;5061110;28;20572;-59
2021/12/20 03:18:25;;;;;;;8.80;2.40;;;3.30;1.00;;;;;;5051396;28;20210;-59
2021/12/20 03:20:51;;;;;;;4.03;2.00;;;3.30;1.00;;;;;;5051138;28;20177;-60
2021/12/20 03:23:16;;;;;;;5.20;1.40;;;3.30;1.00;;;;;;5059451;28;20188;-59
2021/12/20 03:25:42;;;;;;;2.67;1.27;;;3.40;1.00;;;;;;5043611;28;20181;-60
2021/12/20 03:28:07;;;;;;;5.47;1.57;;;3.50;1.00;;;;;;5059667;28;20199;-59
2021/12/20 03:30:33;;;;;;;2.87;1.40;;;3.30;1.00;;;;;;5055006;28;20221;-60
2021/12/20 03:32:58;;;;;;;2.63;1.20;;;3.30;1.00;;;;;;5052945;28;20240;-60
2021/12/20 03:35:24;;;;;;;3.50;1.60;;;3.20;1.00;;;;;;5049849;28;20181;-60
2021/12/20 03:37:50;;;;;;;2.40;1.27;;;3.20;1.00;;;;;;5055403;28;20666;-60
2021/12/20 03:40:15;;;;;;;4.33;1.60;;;3.20;1.00;;;;;;5051514;28;20268;-61
2021/12/20 03:42:45;;;;;;;7.10;2.00;;;3.30;1.00;;;;;;5061392;28;20563;-60
2021/12/20 03:45:13;;;;;;;13.47;2.57;;;3.20;1.00;;;;;;5051301;28;20171;-60
2021/12/20 03:47:39;;;;;;;7.00;2.30;;;3.20;1.00;;;;;;5056985;28;20651;-60
2021/12/20 03:50:06;;;;;;;5.00;1.27;;;3.20;1.00;;;;;;5055830;28;20450;-60
2021/12/20 03:52:31;;;;;;;4.70;1.87;;;3.20;1.00;;;;;;5050942;28;20451;-59
2021/12/20 03:54:57;;;;;;;10.10;1.70;;;3.20;1.00;;;;;;5050796;28;20458;-60
2021/12/20 03:57:22;;;;;;;5.50;1.60;;;3.10;1.00;;;;;;5052728;28;20205;-60
2021/12/20 03:59:48;;;;;;;2.63;1.40;;;3.10;1.00;;;;;;5058080;28;20184;-59
2021/12/20 04:02:18;;;;;;;3.93;1.47;;;3.10;1.00;;;;;;5061934;28;20172;-59
2021/12/20 04:04:44;;;;;;;2.77;1.07;;;3.00;1.00;;;;;;5049828;28;20192;-59
2021/12/20 04:07:09;;;;;;;2.70;1.00;;;3.10;1.00;;;;;;5047512;28;21001;-59
2021/12/20 04:09:35;;;;;;;2.73;1.10;;;3.10;1.00;;;;;;5044789;28;20633;-60
2021/12/20 04:12:00;;;;;;;3.30;1.70;;;3.10;1.00;;;;;;5046792;28;20194;-60
2021/12/20 04:14:26;;;;;;;3.27;1.30;;;3.10;1.00;;;;;;5046004;28;20187;-60
2021/12/20 04:16:51;;;;;;;8.63;2.43;;;3.10;1.00;;;;;;5046672;28;20202;-60
2021/12/20 04:19:17;;;;;;;4.53;2.20;;;;;;;;;;5045731;28;20232;-61
2021/12/20 04:21:43;;;;;;;4.23;1.20;;;3.10;1.00;;;;;;5046155;28;20189;-61
2021/12/20 04:24:08;;;;;;;3.50;1.60;;;3.00;1.00;;;;;;5044787;28;20481;-59
2021/12/20 04:26:34;;;;;;;1.40;0.83;;;3.00;1.00;;;;;;5053411;28;20550;-60
2021/12/20 04:29:01;;;;;;;7.90;1.50;;;3.00;1.00;;;;;;5061667;28;20630;-60
2021/12/20 04:31:28;;;;;;;4.07;2.10;;;3.00;1.00;;;;;;5051499;28;20216;-59
2021/12/20 04:33:54;;;;;;;3.67;1.70;;;3.00;1.00;;;;;;5055947;28;20444;-59
2021/12/20 04:36:20;;;;;;;4.80;1.40;;;3.00;1.00;;;;;;5050534;28;20470;-59
2021/12/20 04:38:46;;;;;;;4.20;1.63;;;3.00;1.00;;;;;;5061491;28;20184;-60
2021/12/20 04:41:12;;;;;;;2.70;1.43;;;3.00;1.00;;;;;;5056359;28;20229;-60
2021/12/20 04:43:38;;;;;;;9.80;2.23;;;3.00;1.00;;;;;;5066344;28;20430;-60
2021/12/20 04:46:04;;;;;;;2.00;0.97;;;2.90;1.00;;;;;;5051102;28;20441;-59
2021/12/20 04:48:29;;;;;;;6.43;1.30;;;2.90;1.00;;;;;;5042644;28;20199;-61
2021/12/20 04:50:55;;;;;;;4.37;1.03;;;3.00;1.00;;;;;;5057451;28;20247;-59
2021/12/20 04:53:20;;;;;;;6.80;1.20;;;3.00;1.00;;;;;;5055128;28;20196;-60
2021/12/20 04:55:46;;;;;;;8.00;2.20;;;2.90;1.00;;;;;;5046437;28;20205;-60
2021/12/20 04:58:12;;;;;;;3.70;1.07;;;3.00;1.00;;;;;;5062088;28;20210;-59
2021/12/20 05:00:40;;;;;;;3.30;1.20;;;2.90;1.00;;;;;;5051699;28;20647;-60
2021/12/20 05:03:06;;;;;;;1.20;0.97;;;3.00;1.00;;;;;;5046782;28;20499;-59
2021/12/20 05:05:32;;;;;;;7.17;1.67;;;3.00;1.00;;;;;;5056411;28;20944;-60
2021/12/20 05:07:58;;;;;;;7.10;1.67;;;2.90;1.00;;;;;;5053614;28;20443;-58
2021/12/20 05:10:33;;;;;;;2.23;0.60;;;3.00;1.00;;;;;;5049784;28;20946;-59
2021/12/20 05:13:02;;;;;;;4.27;1.03;;;3.10;1.00;;;;;;5052984;28;20182;-56
2021/12/20 05:15:28;;;;;;;1.87;0.80;;;2.90;1.00;;;;;;5051854;28;20539;-57
2021/12/20 05:17:54;;;;;;;2.33;1.03;;;2.80;1.00;;;;;;5059964;28;20539;-58
2021/12/20 05:20:20;;;;;;;2.93;1.20;;;2.80;1.00;;;;;;5056676;28;20182;-59
2021/12/20 05:22:46;;;;;;;12.17;1.47;;;2.80;1.00;;;;;;5060915;28;20434;-59
2021/12/20 05:25:12;;;;;;;6.10;1.33;;;2.80;1.00;;;;;;5050704;28;20196;-59
2021/12/20 05:27:38;;;;;;;6.97;2.00;;;2.80;1.00;;;;;;5053467;28;20453;-58
2021/12/20 05:30:05;;;;;;;3.60;1.03;;;2.80;1.00;;;;;;5052062;28;20467;-58
2021/12/20 05:32:31;;;;;;;2.93;1.27;;;;;;;;;;5052363;28;20498;-59
2021/12/20 05:34:57;;;;;;;3.77;1.00;;;2.80;1.00;;;;;;5050699;28;20448;-59
2021/12/20 05:37:23;;;;;;;6.30;1.27;;;2.80;1.00;;;;;;5059049;28;20463;-59
2021/12/20 05:39:48;;;;;;;3.33;0.80;;;2.90;1.00;;;;;;5050711;28;20284;-60
2021/12/20 05:42:15;;;;;;;3.87;1.30;;;2.90;1.00;;;;;;5052039;28;20198;-58
2021/12/20 05:44:40;;;;;;;8.93;1.73;;;2.70;1.00;;;;;;5052342;28;20651;-58
2021/12/20 05:47:06;;;;;;;1.70;0.90;;;2.70;1.00;;;;;;5052375;28;20446;-60
2021/12/20 05:49:32;;;;;;;4.40;1.50;;;2.70;1.00;;;;;;5055990;28;20199;-58
2021/12/20 05:51:59;;;;;;;2.83;1.03;;;2.70;1.00;;;;;;5051156;28;20196;-57
2021/12/20 05:54:25;;;;;;;2.03;1.10;;;2.60;1.00;;;;;;5056527;28;20526;-58
2021/12/20 05:56:50;;;;;;;7.13;1.40;;;2.60;1.00;;;;;;5059029;28;20561;-59
2021/12/20 05:59:16;;;;;;;3.50;1.30;;;2.70;1.00;;;;;;5065235;28;20646;-58
2021/12/20 06:01:41;;;;;;;3.80;1.37;;;2.80;1.00;;;;;;5054244;28;20223;-57
2021/12/20 06:04:07;;;;;;;7.83;1.63;;;2.80;1.00;;;;;;5050024;28;20204;-59
2021/12/20 06:06:33;;;;;;;5.60;1.60;;;2.80;1.00;;;;;;5052413;28;20230;-60
2021/12/20 06:08:58;;;;;;;5.83;1.47;;;2.80;1.00;;;;;;5049390;28;20189;-59
2021/12/20 06:11:24;;;;;;;6.00;1.70;;;2.70;1.00;;;;;;5054563;28;20654;-59
2021/12/20 06:13:51;;;;;;;2.80;2.00;;;2.70;1.00;;;;;;5065045;28;20192;-58
2021/12/20 06:16:17;;;;;;;7.10;1.77;;;2.80;1.00;;;;;;5056896;28;20249;-60
2021/12/20 06:18:43;;;;;;;7.03;1.10;;;2.80;1.00;;;;;;5057736;28;20425;-58
2021/12/20 06:21:09;;;;;;;3.37;2.23;;;;;;;;;;5062019;28;20186;-57
2021/12/20 06:23:34;;;;;;;2.37;1.30;;;2.80;1.00;;;;;;5062759;28;20521;-60
2021/12/20 06:26:00;;;;;;;6.00;1.70;;;2.80;1.00;;;;;;5059285;28;20529;-58
2021/12/20 06:28:26;;;;;;;5.63;1.13;;;2.60;1.00;;;;;;5060948;28;20187;-58
2021/12/20 06:30:52;;;;;;;3.73;1.53;;;2.70;1.00;;;;;;5055967;28;20471;-58
2021/12/20 06:33:17;;;;;;;7.30;2.33;;;2.70;1.00;;;;;;5061349;28;20184;-59
2021/12/20 06:35:43;;;;;;;4.17;1.53;;;4.00;1.00;;;;;;5058712;28;20200;-58
2021/12/20 06:38:11;;;;;;;2.10;1.10;;;2.70;1.00;;;;;;5065700;28;20267;-58
2021/12/20 06:40:37;;;;;;;3.60;1.60;;;2.70;1.00;;;;;;5067136;28;20177;-60
2021/12/20 06:43:04;;;;;;;5.00;1.40;;;2.60;1.00;;;;;;5057585;28;20436;-57
2021/12/20 06:45:29;;;;;;;4.50;1.40;;;2.60;1.00;;;;;;5055575;28;20448;-58
2021/12/20 06:47:56;;;;;;;3.47;1.33;;;2.60;1.00;;;;;;5061808;28;21200;-59
2021/12/20 06:50:21;;;;;;;7.63;2.00;;;2.70;1.00;;;;;;5064758;28;20189;-59
2021/12/20 06:52:47;;;;;;;11.67;2.27;;;2.60;1.00;;;;;;5065322;28;20525;-57
2021/12/20 06:55:13;;;;;;;3.97;1.90;;;2.60;1.00;;;;;;5056640;28;20221;-58
2021/12/20 06:57:39;;;;;;;10.47;1.93;;;2.60;1.00;;;;;;5060615;28;20535;-59
2021/12/20 07:00:06;;;;;;;7.20;2.33;;;2.60;1.00;;;;;;5061678;28;20181;-58
2021/12/20 07:02:32;;;;;;;6.30;3.30;;;;;;;;;;5055405;28;20444;-60
2021/12/20 07:04:57;;;;;;;12.07;2.00;;;2.50;1.00;;;;;;5056048;28;20451;-61
2021/12/20 07:07:23;;;;;;;7.57;2.17;;;2.50;1.00;;;;;;5054379;28;20972;-59
2021/12/20 07:09:50;;;;;;;4.70;1.70;;;2.50;1.00;;;;;;5056915;28;20205;-60
2021/12/20 07:12:16;;;;;;;4.93;1.33;;;2.50;1.00;;;;;;5060384;28;20569;-61
2021/12/20 07:14:42;;;;;;;6.33;2.07;;;2.70;1.00;;;;;;5060451;28;20539;-61
2021/12/20 07:17:07;;;;;;;7.57;1.83;;;2.60;1.00;;;;;;5054581;28;20197;-61
2021/12/20 07:19:33;;;;;;;9.13;2.73;;;2.60;1.00;;;;;;5054940;28;20855;-59
2021/12/20 07:21:58;;;;;;;4.17;2.00;;;2.40;1.00;;;;;;5052282;28;20172;-58
2021/12/20 07:24:24;;;;;;;5.70;2.10;;;2.70;1.00;;;;;;5056072;28;20188;-61
2021/12/20 07:26:51;;;;;;;7.63;1.70;;;2.70;1.00;;;;;;5064614;28;20179;-60
2021/12/20 07:29:17;;;;;;;6.20;2.47;;;2.80;1.00;;;;;;5070569;28;20187;-59
2021/12/20 07:31:43;;;;;;;3.70;1.97;;;2.80;1.00;;;;;;5056936;28;20471;-59
2021/12/20 07:34:10;;;;;;;4.97;1.90;;;2.80;1.00;;;;;;5055037;28;20480;-60
2021/12/20 07:36:36;;;;;;;2.60;1.77;;;2.80;1.00;;;;;;5064009;28;20457;-58
2021/12/20 07:39:02;;;;;;;4.57;1.73;;;2.70;1.00;;;;;;5069821;28;20439;-60
2021/12/20 07:41:28;;;;;;;4.43;1.57;;;2.70;1.00;;;;;;5063513;28;20458;-61
2021/12/20 07:43:54;;;;;;;6.93;2.00;;;2.70;1.00;;;;;;5056518;28;20452;-60
2021/12/20 07:46:20;;;;;;;7.50;2.43;;;2.80;1.00;;;;;;5051585;28;20185;-59
2021/12/20 07:48:46;;;;;;;2.70;1.83;;;2.80;1.00;;;;;;5051144;28;20269;-60
2021/12/20 07:51:12;;;;;;;7.23;1.73;;;2.70;1.00;;;;;;5051366;28;20482;-61
2021/12/20 07:53:38;;;;;;;2.43;1.33;;;;;;;;;;5051238;28;20435;-60
2021/12/20 07:56:04;;;;;;;6.30;1.97;;;2.70;1.00;;;;;;5065841;28;20927;-59
2021/12/20 07:58:31;;;;;;;7.10;2.10;;;2.70;1.00;;;;;;5062938;28;20955;-61
2021/12/20 08:00:58;;;;;;;6.87;2.40;;;2.70;1.00;;;;;;5060819;28;20450;-61
2021/12/20 08:03:23;;;;;;;6.63;1.93;;;2.70;1.00;;;;;;5058627;28;20509;-62
2021/12/20 08:05:49;;;;;;;6.40;2.53;;;2.70;1.00;;;;;;5060867;28;20430;-59
2021/12/20 08:08:15;;;;;;;7.27;2.10;;;2.90;1.00;;;;;;5061880;28;20182;-60
2021/12/20 08:10:41;;;;;;;3.67;1.80;;;;;;;;;;5060115;28;20648;-60
2021/12/20 08:13:08;;;;;;;5.03;1.90;;;2.90;1.00;;;;;;5060548;28;20446;-60
2021/12/20 08:15:33;;;;;;;7.03;2.30;;;2.90;1.00;;;;;;5059431;28;20474;-61
2021/12/20 08:17:59;;;;;;;6.33;2.10;;;2.90;1.00;;;;;;5067548;28;20511;-61
2021/12/20 08:20:25;;;;;;;7.43;2.40;;;3.10;1.00;;;;;;5066591;28;20219;-60
2021/12/20 08:22:51;;;;;;;6.30;2.00;;;3.10;1.00;;;;;;5057104;28;20191;-60
2021/12/20 08:25:18;;;;;;;3.60;1.93;;;3.10;1.00;;;;;;5063193;28;20185;-60
2021/12/20 08:27:44;;;;;;;3.50;2.10;;;3.20;1.00;;;;;;5057776;28;20496;-59
2021/12/20 08:30:10;;;;;;;3.73;1.77;;;3.30;1.00;;;;;;5061458;28;20448;-61
2021/12/20 08:32:36;;;;;;;3.90;2.17;;;3.20;1.00;;;;;;5058585;28;20451;-60
2021/12/20 08:35:04;;;;;;;7.30;2.00;;;3.40;1.00;;;;;;5062609;28;20441;-60
2021/12/20 08:37:29;;;;;;;3.93;1.97;;;3.40;1.00;;;;;;5060064;28;20480;-60
2021/12/20 08:39:55;;;;;;;5.83;2.33;;;3.50;1.00;;;;;;5060037;28;20530;-59
2021/12/20 08:42:21;;;;;;;5.23;2.23;;;3.50;1.00;;;;;;5061574;28;20437;-61
2021/12/20 08:44:48;;;;;;;11.07;2.60;;;3.40;1.00;;;;;;5062797;28;20262;-59
2021/12/20 08:47:15;;;;;;;6.93;2.30;;;3.40;1.00;;;;;;5062407;28;20453;-60
2021/12/20 08:49:40;;;;;;;8.77;3.07;;;3.50;1.00;;;;;;5065187;28;20483;-60
2021/12/20 08:52:07;;;;;;;3.53;2.10;;;3.60;1.00;;;;;;5068720;28;20478;-60
2021/12/20 08:54:33;;;;;;;6.63;2.60;;;;;;;;;;5061024;28;20209;-60
2021/12/20 08:56:58;;;;;;;7.03;3.10;;;3.60;1.00;;;;;;5070566;28;20574;-60
2021/12/20 08:59:25;;;;;;;4.80;2.93;;;3.70;1.00;;;;;;5070620;28;20526;-60
2021/12/20 09:01:52;;;;;;;9.03;2.67;;;3.70;1.00;;;;;;5070666;28;20184;-60
2021/12/20 09:04:18;;;;;;;10.07;2.43;;;3.60;1.00;;;;;;5070189;28;20438;-60
2021/12/20 09:06:44;;;;;;;10.53;3.00;;;3.50;1.00;;;;;;5070280;28;20442;-60
2021/12/20 09:09:13;;;;;;;4.10;2.63;;;3.40;1.00;;;;;;5057882;28;20431;-60
2021/12/20 09:11:39;;;;;;;3.90;2.47;;;3.40;1.00;;;;;;5067677;28;20446;-61
2021/12/20 09:14:05;;;;;;;11.20;3.00;;;;;;;;;;5062040;28;20442;-61
2021/12/20 09:16:31;;;;;;;3.43;2.63;;;3.50;1.00;;;;;;5061113;28;20438;-59
2021/12/20 09:18:58;;;;;;;9.60;2.57;;;3.50;1.00;;;;;;5050140;28;20448;-61
2021/12/20 09:21:24;;;;;;;5.30;2.80;;;3.50;1.00;;;;;;5054553;28;20211;-60
2021/12/20 09:23:49;;;;;;;6.50;2.77;;;3.50;1.00;;;;;;5058559;28;20948;-60
2021/12/20 09:26:15;;;;;;;7.17;2.90;;;3.60;1.00;;;;;;5062097;28;20416;-60
2021/12/20 09:28:41;;;;;;;4.60;2.57;;;3.70;1.00;;;;;;5066268;28;20188;-60
2021/12/20 09:31:07;;;;;;;11.17;3.20;;;3.70;1.00;;;;;;5070389;28;20466;-62
2021/12/20 09:33:33;;;;;;;4.87;3.10;;;3.80;1.00;;;;;;5067110;28;20505;-59
2021/12/20 09:36:01;;;;;;;6.17;3.07;;;3.80;1.00;;;;;;5060742;28;20624;-59
2021/12/20 09:38:28;;;;;;;6.60;2.80;;;3.80;1.00;;;;;;5064507;28;20260;-60
2021/12/20 09:43:39;;;;;;;9.90;2.60;;;4.00;1.00;;;;;;5063831;28;20433;-61
2021/12/20 09:46:05;;;;;;;6.63;2.57;;;3.90;1.00;;;;;;5059157;28;20431;-60
2021/12/20 09:48:31;;;;;;;8.80;3.70;;;3.90;1.00;;;;;;5063679;28;20441;-60
2021/12/20 09:50:57;;;;;;;7.83;2.73;;;3.90;1.00;;;;;;5060817;28;20648;-62
2021/12/20 09:53:23;;;;;;;2.93;2.03;;;4.00;1.00;;;;;;5059087;28;20499;-61
2021/12/20 09:55:50;;;;;;;4.70;3.43;;;3.90;1.00;;;;;;5070411;28;20475;-59
2021/12/20 09:58:16;;;;;;;7.80;3.10;;;3.90;1.00;;;;;;5053999;28;20180;-61
2021/12/20 10:00:42;;;;;;;5.83;2.70;;;4.00;1.00;;;;;;5073168;28;20437;-60
2021/12/20 10:03:08;;;;;;;5.30;3.40;;;4.00;1.00;;;;;;5061813;28;20435;-61
2021/12/20 10:05:36;;;;;;;7.43;3.93;;;4.00;1.00;;;;;;5061338;28;20216;-61
2021/12/20 10:08:13;;;;;;;8.40;2.90;;;3.90;1.00;;;;;;5055121;28;20173;-59
2021/12/20 10:11:00;;;;;;;6.33;3.00;;;4.00;1.00;;;;;;5071846;28;20422;-60
2021/12/20 10:13:34;;;;;;;5.60;2.63;;;3.90;1.00;;;;;;5064178;28;20500;-62
2021/12/20 10:16:02;;;;;;;8.23;2.93;;;3.90;1.00;;;;;;5073351;28;20461;-60
2021/12/20 10:18:31;;;;;;;5.50;2.80;;;3.90;1.00;;;;;;5053673;28;20807;-61
2021/12/20 10:20:59;;;;;;;5.10;2.87;;;4.20;1.00;;;;;;5055508;28;20456;-60
2021/12/20 10:23:39;;;;;;;7.13;3.33;;;3.80;1.00;;;;;;5050770;28;20512;-60
2021/12/20 10:26:21;;;;;;;6.30;2.70;;;3.90;1.00;;;;;;5053575;28;20504;-61
2021/12/20 10:28:52;;;;;;;3.60;2.03;;;4.00;1.00;;;;;;5053606;28;20443;-60
2021/12/20 10:31:26;;;;;;;6.83;2.20;;;4.20;1.00;;;;;;5060040;28;20436;-61
2021/12/20 10:33:53;;;;;;;8.93;2.50;;;4.30;1.00;;;;;;5054799;28;20412;-59
2021/12/20 10:36:19;;;;;;;4.57;2.53;;;;;;;;;;5065641;28;20576;-60
2021/12/20 10:38:48;;;;;;;10.80;3.13;;;4.10;1.00;;;;;;5053574;28;20494;-60
2021/12/20 10:41:18;;;;;;;8.10;2.97;;;4.20;1.00;;;;;;5069898;28;20418;-60
2021/12/20 10:43:54;;;;;;;4.40;2.13;;;4.10;1.00;;;;;;5065355;28;20443;-59
2021/12/20 10:46:30;;;;;;;4.93;2.50;;;4.10;1.00;;;;;;5052983;28;20788;-61
2021/12/20 10:49:01;;;;;;;7.20;2.93;;;4.20;1.00;;;;;;5052971;28;20449;-59
2021/12/20 10:51:32;;;;;;;3.73;2.57;;;4.20;1.00;;;;;;5058363;28;20982;-61
2021/12/20 10:54:02;;;;;;;11.87;2.60;;;4.20;1.00;;;;;;5051631;28;20427;-61
2021/12/20 10:56:35;;;;;;;5.50;2.70;;;4.30;1.00;;;;;;5057039;28;20442;-62
2021/12/20 10:59:09;;;;;;;4.50;2.70;;;4.40;1.00;;;;;;5058909;28;20527;-60
2021/12/20 11:02:41;;;;;;;6.00;2.50;;;4.30;1.00;;;;;;5057448;28;20448;-61
2021/12/20 11:04:50;;;;;;;6.30;2.23;;;4.10;1.00;;;;;;5064388;28;20449;-59
2021/12/20 11:09:54;;;;;;;7.80;3.10;;;4.10;1.00;;;;;;5052787;28;20795;-60
2021/12/20 11:12:23;;;;;;;7.53;2.67;;;4.20;1.00;;;;;;5050019;28;20916;-60
2021/12/20 11:14:52;;;;;;;6.57;2.43;;;4.30;1.00;;;;;;5062581;28;20445;-59
2021/12/20 11:17:20;;;;;;;4.80;2.60;;;4.20;1.00;;;;;;5068801;28;20751;-60
2021/12/20 11:19:48;;;;;;;9.70;2.57;;;4.30;1.00;;;;;;5054158;28;20425;-60
2021/12/20 11:22:17;;;;;;;8.97;2.57;;;4.30;1.00;;;;;;5062219;28;20445;-60
2021/12/20 11:24:55;;;;;;;6.30;3.43;;;4.40;1.00;;;;;;5059574;28;20899;-60
2021/12/20 11:27:36;;;;;;;4.87;2.50;;;4.40;1.00;;;;;;5072245;28;20518;-60
2021/12/20 11:30:16;;;;;;;6.67;2.90;;;4.50;1.00;;;;;;5062343;28;20566;-60
2021/12/20 11:32:43;;;;;;;8.87;2.67;;;4.70;1.00;;;;;;5066114;28;20516;-63
2021/12/20 11:35:09;;;;;;;7.93;2.23;;;4.60;1.00;;;;;;5063983;28;20503;-62
2021/12/20 11:37:36;;;;;;;4.90;2.63;;;;;;;;;;5068135;28;20459;-60
2021/12/20 11:40:05;;;;;;;8.47;2.53;;;4.50;1.00;;;;;;5067948;28;20485;-61
2021/12/20 11:42:30;;;;;;;6.23;2.60;;;4.50;1.00;;;;;;5071486;28;20431;-62
2021/12/20 11:45:00;;;;;;;7.60;3.10;;;4.60;1.00;;;;;;5060334;28;20439;-61
2021/12/20 11:47:43;;;;;;;10.90;2.50;;;4.50;1.00;;;;;;5064245;28;20223;-61
2021/12/20 11:50:12;;;;;;;5.13;2.83;;;4.50;1.00;;;;;;5057998;28;20530;-61
2021/12/20 11:52:48;;;;;;;8.60;2.20;;;4.50;1.00;;;;;;5050562;28;20952;-60
2021/12/20 11:55:25;;;;;;;8.07;2.77;;;4.60;1.00;;;;;;5068404;28;20433;-62
2021/12/20 11:57:51;;;;;;;6.00;2.27;;;;;;;;;;5062914;28;20493;-61
2021/12/20 12:00:18;;;;;;;8.07;2.90;;;;;;;;;;5056093;28;20437;-61
2021/12/20 12:02:45;;;;;;;5.67;2.37;;;4.80;1.00;;;;;;5053124;28;20447;-61
2021/12/20 12:05:15;;;;;;;4.60;2.50;;;4.70;1.00;;;;;;5071098;28;20431;-61
2021/12/20 12:07:41;;;;;;;4.80;2.27;;;4.80;1.00;;;;;;5063194;28;20452;-61
2021/12/20 12:10:11;;;;;;;7.37;2.97;;;4.80;1.00;;;;;;5071866;28;20436;-60
2021/12/20 12:12:41;;;;;;;6.63;3.10;;;5.00;1.00;;;;;;5059332;28;20438;-60
2021/12/20 12:15:11;;;;;;;5.60;2.80;;;4.90;1.00;;;;;;5049205;28;20450;-62
2021/12/20 12:18:10;;;;;;;8.13;2.40;;;4.90;1.00;;;;;;5052477;28;20798;-60
2021/12/20 12:20:46;;;;;;;6.30;2.97;;;5.00;1.00;;;;;;5051811;28;20449;-61
2021/12/20 12:23:28;;;;;;;4.50;2.50;;;5.10;1.00;;;;;;5052001;28;20433;-60
2021/12/20 12:25:58;;;;;;;6.67;3.07;;;5.00;1.00;;;;;;5070217;28;20441;-60
2021/12/20 12:28:48;;;;;;;4.70;2.20;;;5.00;1.00;;;;;;5052473;28;20500;-60
2021/12/20 12:31:14;;;;;;;5.57;2.70;;;4.90;1.00;;;;;;5049634;28;20496;-61
2021/12/20 12:33:40;;;;;;;6.60;2.70;;;5.00;1.00;;;;;;5064302;28;20946;-61
2021/12/20 12:36:30;;;;;;;3.90;2.70;;;5.00;1.00;;;;;;5069187;28;20458;-61
2021/12/20 12:39:01;;;;;;;4.37;2.33;;;5.00;1.00;;;;;;5056793;28;20521;-60
2021/12/20 12:41:31;;;;;;;9.97;3.20;;;5.00;1.00;;;;;;5064337;28;20431;-61
2021/12/20 12:43:59;;;;;;;8.33;3.23;;;5.10;1.00;;;;;;5068128;28;20467;-61
2021/12/20 12:46:41;;;;;;;2.80;2.20;;;5.10;1.00;;;;;;5061678;28;20440;-61
2021/12/20 12:49:26;;;;;;;4.47;2.50;;;5.20;1.00;;;;;;5060550;28;21006;-62
2021/12/20 12:51:55;;;;;;;7.17;2.83;;;5.10;1.00;;;;;;5059670;28;20974;-61
2021/12/20 12:54:33;;;;;;;6.03;2.70;;;5.20;1.00;;;;;;5066920;28;20754;-61
2021/12/20 12:57:11;;;;;;;7.90;3.30;;;5.20;1.00;;;;;;5059813;28;20449;-65
2021/12/20 12:59:37;;;;;;;4.20;2.60;;;5.20;1.00;;;;;;5059549;28;20483;-60
2021/12/20 13:02:09;;;;;;;6.27;2.70;;;5.30;1.00;;;;;;5054578;28;20436;-61
2021/12/20 13:04:47;;;;;;;6.37;2.73;;;5.30;1.00;;;;;;5068029;28;20446;-61
2021/12/20 13:07:20;;;;;;;5.83;3.00;;;5.30;1.00;;;;;;5056296;28;20445;-60
2021/12/20 13:09:48;;;;;;;7.13;2.57;;;5.30;1.00;;;;;;5061787;28;20428;-60
2021/12/20 13:12:27;;;;;;;4.90;2.70;;;5.30;1.00;;;;;;5067892;28;20760;-61
2021/12/20 13:17:45;;;;;;;5.53;2.50;;;5.30;1.00;;;;;;5070419;28;20898;-61
2021/12/20 13:20:25;;;;;;;2.90;2.27;;;5.30;1.00;;;;;;5066062;28;20439;-61
2021/12/20 13:23:00;;;;;;;6.30;2.17;;;5.20;1.00;;;;;;5060665;28;20521;-62
2021/12/20 13:25:59;;;;;;;9.10;2.50;;;5.20;1.00;;;;;;5059892;28;20441;-61
2021/12/20 13:28:28;;;;;;;5.67;3.77;;;;;;;;;;5061948;28;20437;-61
2021/12/20 13:31:04;;;;;;;15.03;2.80;;;5.30;1.00;;;;;;5058994;28;20439;-60
2021/12/20 13:33:32;;;;;;;7.30;3.03;;;;;;;;;;5062236;28;20792;-61
2021/12/20 13:36:02;;;;;;;4.70;3.10;;;5.40;1.00;;;;;;5038028;28;20572;-61
2021/12/20 13:38:49;;;;;;;9.53;3.17;;;5.30;1.00;;;;;;5056504;28;20438;-60
2021/12/20 13:41:25;;;;;;;4.33;2.50;;;5.20;1.00;;;;;;5056767;28;20446;-61